Time;durP1;ratioP1;P1;durP2;ratioP2;P2;SDS_P1;SDS_P2;PMS_P1;PMS_P2;Temp;Humidity;BMP_temperature;BMP_pressure;BME280_temperature;BME280_humidity;BME280_pressure;Samples;Min_cycle;Max_cycle;Signal;HPM_P1;HPM_P2
2021/07/31 00:00:11;;;;;;;4.15;1.63;;;17.20;66.70;;;;;;5053688;28;20517;-37
2021/07/31 00:02:37;;;;;;;3.92;1.40;;;17.20;66.70;;;;;;5053348;28;20025;-37
2021/07/31 00:05:04;;;;;;;3.35;1.20;;;17.10;66.70;;;;;;5053680;28;20427;-37
2021/07/31 00:07:29;;;;;;;4.70;1.50;;;17.10;66.90;;;;;;5054031;28;20048;-36
2021/07/31 00:09:55;;;;;;;3.92;1.10;;;17.00;67.20;;;;;;5052995;28;20062;-37
2021/07/31 00:12:20;;;;;;;9.20;1.33;;;17.10;67.20;;;;;;5053051;28;20448;-37
2021/07/31 00:14:46;;;;;;;10.32;1.92;;;17.00;67.10;;;;;;5051545;28;20021;-37
2021/07/31 00:17:12;;;;;;;6.00;1.30;;;17.00;67.30;;;;;;5053087;28;20059;-36
2021/07/31 00:19:37;;;;;;;6.72;1.30;;;17.00;67.20;;;;;;5053006;28;20376;-36
2021/07/31 00:22:03;;;;;;;4.65;1.40;;;16.90;67.30;;;;;;5053363;28;20032;-36
2021/07/31 00:24:29;;;;;;;4.53;1.25;;;16.90;67.70;;;;;;5052856;28;20599;-36
2021/07/31 00:26:55;;;;;;;5.55;1.80;;;16.90;67.80;;;;;;5053157;28;20028;-37
2021/07/31 00:29:21;;;;;;;3.83;1.33;;;16.90;68.10;;;;;;5052818;28;20108;-37
2021/07/31 00:31:47;;;;;;;4.03;1.70;;;16.80;67.90;;;;;;5052491;28;20120;-36
2021/07/31 00:34:13;;;;;;;7.00;1.40;;;16.80;68.10;;;;;;5052735;28;20063;-37
2021/07/31 00:36:38;;;;;;;5.07;1.65;;;16.90;67.90;;;;;;5051447;28;20132;-37
2021/07/31 00:39:04;;;;;;;3.58;1.55;;;16.80;67.70;;;;;;5052716;28;20076;-37
2021/07/31 00:41:29;;;;;;;8.13;1.85;;;16.90;68.00;;;;;;5052665;28;20017;-36
2021/07/31 00:43:55;;;;;;;12.02;1.60;;;16.90;67.60;;;;;;5052786;28;20060;-37
2021/07/31 00:46:21;;;;;;;4.70;1.70;;;17.00;67.60;;;;;;5052506;28;20469;-36
2021/07/31 00:48:47;;;;;;;2.55;1.25;;;16.90;67.60;;;;;;5052495;28;20032;-36
2021/07/31 00:51:13;;;;;;;5.32;1.60;;;17.00;67.60;;;;;;5053221;28;20025;-36
2021/07/31 00:53:39;;;;;;;10.55;1.92;;;17.00;67.20;;;;;;5052652;28;20116;-38
2021/07/31 00:56:05;;;;;;;2.95;1.17;;;17.00;67.30;;;;;;5052870;28;20521;-39
2021/07/31 00:58:31;;;;;;;5.95;1.83;;;17.00;67.50;;;;;;5052850;28;20112;-37
2021/07/31 01:00:56;;;;;;;5.75;1.58;;;17.00;67.20;;;;;;5053116;28;20092;-37
2021/07/31 01:03:22;;;;;;;3.33;1.42;;;17.00;67.40;;;;;;5051011;28;20599;-37
2021/07/31 01:05:48;;;;;;;5.35;1.30;;;17.00;67.50;;;;;;5050991;28;20033;-37
2021/07/31 01:08:14;;;;;;;5.22;1.60;;;17.00;67.80;;;;;;5054801;28;20025;-37
2021/07/31 01:10:39;;;;;;;4.78;1.20;;;17.00;67.90;;;;;;5056134;28;20533;-37
2021/07/31 01:13:06;;;;;;;3.13;1.52;;;17.00;67.20;;;;;;5056400;28;20055;-37
2021/07/31 01:15:31;;;;;;;6.85;1.50;;;17.00;67.50;;;;;;5056237;28;20468;-37
2021/07/31 01:17:57;;;;;;;5.53;1.42;;;17.00;67.60;;;;;;5056356;28;20025;-38
2021/07/31 01:20:25;;;;;;;11.15;1.80;;;17.00;67.80;;;;;;5054666;28;20431;-37
2021/07/31 01:22:51;;;;;;;7.30;1.60;;;17.00;67.80;;;;;;5056504;28;20028;-37
2021/07/31 01:25:17;;;;;;;3.40;1.17;;;17.00;68.00;;;;;;5056090;28;20028;-37
2021/07/31 01:27:43;;;;;;;3.33;1.30;;;17.00;67.90;;;;;;5055989;28;20025;-37
2021/07/31 01:30:09;;;;;;;4.65;1.45;;;17.00;68.30;;;;;;5054204;28;20128;-37
2021/07/31 01:32:35;;;;;;;8.55;1.67;;;16.90;68.00;;;;;;5055918;28;20027;-37
2021/07/31 01:35:01;;;;;;;8.90;1.48;;;16.90;68.40;;;;;;5055646;28;20104;-37
2021/07/31 01:37:26;;;;;;;6.15;1.73;;;16.90;68.20;;;;;;5055959;28;20107;-37
2021/07/31 01:39:52;;;;;;;10.13;1.77;;;16.90;68.40;;;;;;5056142;28;20033;-37
2021/07/31 01:42:18;;;;;;;3.08;1.30;;;17.00;68.50;;;;;;5056241;28;20027;-37
2021/07/31 01:44:44;;;;;;;9.15;2.00;;;17.00;68.50;;;;;;5056054;28;20546;-37
2021/07/31 01:47:10;;;;;;;3.15;1.17;;;16.80;68.80;;;;;;5055708;28;20033;-37
2021/07/31 01:49:35;;;;;;;5.00;1.80;;;16.90;68.80;;;;;;5056210;28;20024;-37
2021/07/31 01:52:01;;;;;;;3.40;1.13;;;16.90;69.10;;;;;;5055655;28;20021;-37
2021/07/31 01:54:26;;;;;;;3.60;1.17;;;16.80;69.10;;;;;;5055617;28;20044;-37
2021/07/31 01:56:52;;;;;;;2.92;1.58;;;16.80;69.40;;;;;;5055535;28;20469;-37
2021/07/31 01:59:18;;;;;;;5.10;1.48;;;16.80;69.40;;;;;;5055755;28;20025;-37
2021/07/31 02:01:43;;;;;;;4.22;1.50;;;16.90;69.90;;;;;;5055300;28;20021;-37
2021/07/31 02:04:09;;;;;;;6.85;2.80;;;16.90;69.50;;;;;;5055835;28;20492;-37
2021/07/31 02:06:34;;;;;;;8.52;1.88;;;16.90;69.70;;;;;;5055487;28;20021;-37
2021/07/31 02:09:00;;;;;;;5.13;1.60;;;17.00;69.20;;;;;;5055667;28;20013;-38
2021/07/31 02:11:26;;;;;;;3.30;1.45;;;16.90;69.90;;;;;;5055496;28;20021;-37
2021/07/31 02:13:51;;;;;;;8.45;1.88;;;16.90;69.70;;;;;;5055179;28;20330;-37
2021/07/31 02:16:25;;;;;;;2.83;1.42;;;16.80;70.10;;;;;;5055117;28;20021;-37
2021/07/31 02:18:51;;;;;;;1.90;1.40;;;16.80;70.00;;;;;;5055079;28;20077;-37
2021/07/31 02:21:18;;;;;;;3.70;1.58;;;16.80;70.10;;;;;;5055373;28;20088;-38
2021/07/31 02:23:43;;;;;;;5.03;1.65;;;16.80;70.30;;;;;;5055044;28;20029;-37
2021/07/31 02:26:09;;;;;;;6.53;2.33;;;16.80;70.40;;;;;;5055012;28;20135;-37
2021/07/31 02:28:35;;;;;;;5.60;1.55;;;16.80;70.70;;;;;;5055192;28;20099;-37
2021/07/31 02:31:00;;;;;;;6.32;2.25;;;16.80;71.00;;;;;;5053416;28;20202;-37
2021/07/31 02:33:26;;;;;;;7.95;2.40;;;16.70;71.50;;;;;;5054785;28;20028;-37
2021/07/31 02:35:52;;;;;;;5.18;1.63;;;16.70;71.60;;;;;;5054855;28;20029;-37
2021/07/31 02:38:18;;;;;;;5.05;1.85;;;16.70;71.70;;;;;;5054762;28;20025;-37
2021/07/31 02:40:43;;;;;;;4.90;1.33;;;16.60;71.60;;;;;;5055057;28;20056;-37
2021/07/31 02:43:09;;;;;;;8.80;2.30;;;16.60;72.00;;;;;;5055071;28;20372;-37
2021/07/31 02:45:36;;;;;;;4.70;1.80;;;16.60;71.80;;;;;;5055027;28;20029;-37
2021/07/31 02:48:04;;;;;;;3.85;1.90;;;16.50;72.10;;;;;;5055335;28;20346;-37
2021/07/31 02:50:30;;;;;;;5.93;1.70;;;16.50;72.20;;;;;;5054771;28;20022;-37
2021/07/31 02:52:55;;;;;;;4.40;2.88;;;16.50;72.20;;;;;;5054394;28;20377;-37
2021/07/31 02:55:21;;;;;;;5.38;1.65;;;16.50;72.40;;;;;;5054305;28;20053;-37
2021/07/31 02:57:46;;;;;;;8.85;1.42;;;16.60;72.00;;;;;;5054229;28;20056;-37
2021/07/31 03:00:12;;;;;;;5.93;2.15;;;16.60;72.10;;;;;;5052844;28;20466;-37
2021/07/31 03:02:38;;;;;;;2.83;1.63;;;16.60;72.00;;;;;;5054705;28;20108;-37
2021/07/31 03:05:04;;;;;;;5.60;1.60;;;16.70;71.60;;;;;;5054345;28;20059;-37
2021/07/31 03:07:32;;;;;;;9.70;1.98;;;16.80;71.30;;;;;;5052917;28;20078;-37
2021/07/31 03:09:59;;;;;;;8.73;1.85;;;16.80;71.40;;;;;;5054376;28;20053;-37
2021/07/31 03:12:25;;;;;;;6.65;2.08;;;16.80;71.60;;;;;;5054139;28;20108;-37
2021/07/31 03:14:52;;;;;;;3.88;1.85;;;16.70;71.60;;;;;;5053973;28;20212;-37
2021/07/31 03:17:17;;;;;;;4.78;1.88;;;16.70;71.80;;;;;;5054162;28;20036;-36
2021/07/31 03:19:44;;;;;;;5.95;2.45;;;16.70;71.70;;;;;;5053826;28;20021;-36
2021/07/31 03:22:09;;;;;;;3.67;1.55;;;16.70;71.80;;;;;;5054081;28;20082;-36
2021/07/31 03:24:36;;;;;;;7.78;1.73;;;16.70;71.40;;;;;;5053966;28;20028;-36
2021/07/31 03:27:03;;;;;;;4.57;2.03;;;16.70;71.90;;;;;;5054146;28;20086;-37
2021/07/31 03:29:32;;;;;;;8.80;2.10;;;16.70;71.70;;;;;;5054075;28;20028;-36
2021/07/31 03:31:57;;;;;;;7.07;2.17;;;16.70;71.60;;;;;;5053520;28;20057;-36
2021/07/31 03:34:23;;;;;;;10.02;2.28;;;16.70;71.40;;;;;;5053669;28;20021;-36
2021/07/31 03:36:51;;;;;;;6.72;1.90;;;16.80;71.40;;;;;;5053591;28;20028;-36
2021/07/31 03:39:20;;;;;;;6.38;2.08;;;16.80;71.10;;;;;;5053303;28;20075;-36
2021/07/31 03:41:45;;;;;;;8.25;2.20;;;16.80;71.00;;;;;;5053966;28;20528;-36
2021/07/31 03:44:11;;;;;;;6.47;2.08;;;16.80;71.10;;;;;;5053411;28;20052;-36
2021/07/31 03:46:44;;;;;;;3.83;1.25;;;16.80;71.00;;;;;;5053729;28;20165;-36
2021/07/31 03:49:11;;;;;;;6.32;2.08;;;16.80;71.10;;;;;;5053671;28;20500;-36
2021/07/31 03:51:36;;;;;;;6.03;1.73;;;16.80;70.80;;;;;;5052250;28;20021;-36
2021/07/31 03:54:02;;;;;;;6.43;2.03;;;16.80;71.20;;;;;;5053610;28;20028;-36
2021/07/31 03:56:27;;;;;;;7.05;1.92;;;16.80;70.90;;;;;;5053388;28;20375;-36
2021/07/31 03:58:54;;;;;;;2.03;1.48;;;16.80;70.80;;;;;;5053429;28;20024;-36
2021/07/31 04:01:24;;;;;;;7.15;1.92;;;16.80;71.00;;;;;;5053746;28;20044;-36
2021/07/31 04:03:50;;;;;;;5.70;1.77;;;16.80;71.00;;;;;;5053293;28;20044;-37
2021/07/31 04:06:16;;;;;;;8.98;2.05;;;16.80;70.80;;;;;;5053504;28;20108;-36
2021/07/31 04:08:42;;;;;;;8.68;2.67;;;16.80;71.20;;;;;;5053330;28;20048;-36
2021/07/31 04:11:07;;;;;;;8.98;2.28;;;16.80;70.90;;;;;;5053163;28;20036;-36
2021/07/31 04:13:33;;;;;;;5.50;1.95;;;16.80;70.50;;;;;;5053010;28;20025;-36
2021/07/31 04:15:58;;;;;;;5.30;2.70;;;16.80;70.60;;;;;;5052940;28;20108;-37
2021/07/31 04:18:24;;;;;;;3.50;1.70;;;16.80;71.00;;;;;;5053042;28;20017;-36
2021/07/31 04:20:50;;;;;;;7.18;1.90;;;16.70;71.00;;;;;;5052805;28;20109;-37
2021/07/31 04:23:16;;;;;;;4.95;2.25;;;16.60;71.20;;;;;;5053141;28;20044;-36
2021/07/31 04:25:42;;;;;;;11.25;2.25;;;16.60;71.40;;;;;;5052783;28;20029;-36
2021/07/31 04:28:08;;;;;;;12.55;2.30;;;16.50;71.60;;;;;;5052939;28;20044;-36
2021/07/31 04:30:34;;;;;;;4.03;1.83;;;16.50;71.80;;;;;;5053104;28;20103;-36
2021/07/31 04:33:00;;;;;;;5.97;1.90;;;16.50;72.20;;;;;;5053122;28;20025;-36
2021/07/31 04:35:25;;;;;;;5.57;2.17;;;16.50;72.10;;;;;;5051286;28;20469;-36
2021/07/31 04:37:51;;;;;;;8.18;2.75;;;16.50;72.20;;;;;;5052803;28;20049;-36
2021/07/31 04:40:17;;;;;;;3.47;1.77;;;16.60;71.90;;;;;;5052819;28;20203;-36
2021/07/31 04:42:43;;;;;;;2.10;1.73;;;16.60;72.20;;;;;;5054838;28;20052;-36
2021/07/31 04:45:09;;;;;;;4.30;2.53;;;16.70;71.90;;;;;;5057086;28;20025;-36
2021/07/31 04:47:41;;;;;;;7.85;2.35;;;16.60;71.90;;;;;;5056948;28;20028;-36
2021/07/31 04:50:09;;;;;;;7.70;2.42;;;16.50;72.40;;;;;;5056752;28;20040;-36
2021/07/31 04:52:36;;;;;;;7.65;1.77;;;16.50;72.40;;;;;;5056637;28;20056;-36
2021/07/31 04:55:03;;;;;;;11.45;2.47;;;16.50;72.70;;;;;;5056699;28;20029;-36
2021/07/31 04:57:28;;;;;;;7.05;2.90;;;16.50;72.50;;;;;;5056617;28;20102;-36
2021/07/31 04:59:54;;;;;;;11.38;2.70;;;16.50;72.50;;;;;;5056572;28;20025;-36
2021/07/31 05:02:20;;;;;;;5.82;1.95;;;16.60;72.60;;;;;;5056555;28;20029;-36
2021/07/31 05:04:45;;;;;;;5.88;2.22;;;16.60;72.50;;;;;;5056716;28;20047;-36
2021/07/31 05:07:11;;;;;;;4.60;1.75;;;16.50;72.50;;;;;;5056369;28;20473;-36
2021/07/31 05:09:37;;;;;;;4.28;2.08;;;16.60;72.30;;;;;;5056554;28;20029;-36
2021/07/31 05:12:03;;;;;;;5.90;2.40;;;16.70;72.20;;;;;;5056358;28;20114;-37
2021/07/31 05:14:28;;;;;;;6.10;1.92;;;16.70;72.30;;;;;;5056544;28;20064;-37
2021/07/31 05:16:54;;;;;;;10.00;2.50;;;16.50;72.70;;;;;;5056456;28;20025;-36
2021/07/31 05:19:20;;;;;;;7.85;2.35;;;16.50;73.10;;;;;;5055057;28;20021;-36
2021/07/31 05:21:45;;;;;;;5.70;2.40;;;16.60;72.70;;;;;;5056607;28;20373;-36
2021/07/31 05:24:11;;;;;;;7.32;2.50;;;16.50;72.60;;;;;;5056364;28;20112;-36
2021/07/31 05:26:37;;;;;;;4.70;2.22;;;16.60;72.60;;;;;;5054717;28;20092;-36
2021/07/31 05:29:05;;;;;;;2.78;1.52;;;16.60;72.60;;;;;;5056103;28;20048;-36
2021/07/31 05:31:30;;;;;;;4.00;2.20;;;16.50;73.10;;;;;;5055802;28;20048;-36
2021/07/31 05:33:57;;;;;;;6.10;2.20;;;16.50;73.30;;;;;;5056153;28;20032;-36
2021/07/31 05:36:22;;;;;;;6.53;2.10;;;16.50;73.30;;;;;;5056011;28;20032;-36
2021/07/31 05:38:48;;;;;;;3.83;2.08;;;16.50;73.30;;;;;;5055910;28;20029;-37
2021/07/31 05:41:17;;;;;;;8.48;2.42;;;16.50;73.50;;;;;;5055837;28;20374;-36
2021/07/31 05:43:43;;;;;;;9.15;2.10;;;16.60;73.30;;;;;;5055802;28;20025;-36
2021/07/31 05:46:10;;;;;;;4.55;2.22;;;16.50;73.40;;;;;;5055646;28;20033;-36
2021/07/31 05:48:35;;;;;;;7.13;2.25;;;16.50;73.30;;;;;;5055688;28;20029;-36
2021/07/31 05:51:01;;;;;;;7.28;2.28;;;16.50;73.50;;;;;;5056125;28;20029;-36
2021/07/31 05:53:27;;;;;;;3.28;1.58;;;16.50;74.00;;;;;;5055000;28;20027;-36
2021/07/31 05:55:53;;;;;;;6.20;2.35;;;16.50;73.60;;;;;;5055362;28;20532;-36
2021/07/31 05:58:19;;;;;;;4.57;1.88;;;16.50;74.00;;;;;;5055704;28;20563;-36
2021/07/31 06:00:44;;;;;;;9.95;2.25;;;16.50;73.80;;;;;;5055430;28;20033;-37
2021/07/31 06:03:10;;;;;;;11.48;3.47;;;16.50;73.70;;;;;;5055312;28;20031;-36
2021/07/31 06:05:35;;;;;;;5.60;2.22;;;16.50;73.90;;;;;;5055446;28;20068;-36
2021/07/31 06:08:01;;;;;;;7.07;2.67;;;16.50;73.90;;;;;;5055587;28;20032;-36
2021/07/31 06:10:27;;;;;;;9.38;2.80;;;16.50;74.00;;;;;;5053847;28;20120;-36
2021/07/31 06:12:52;;;;;;;6.72;1.90;;;16.50;74.10;;;;;;5053764;28;20033;-36
2021/07/31 06:15:18;;;;;;;6.57;3.00;;;16.50;74.20;;;;;;5054913;28;20032;-36
2021/07/31 06:17:44;;;;;;;6.75;2.03;;;16.50;74.40;;;;;;5055179;28;20028;-36
2021/07/31 06:20:10;;;;;;;4.25;2.00;;;16.60;74.40;;;;;;5054905;28;20024;-36
2021/07/31 06:22:36;;;;;;;2.97;1.73;;;16.60;74.30;;;;;;5054952;28;20098;-38
2021/07/31 06:25:02;;;;;;;6.35;2.15;;;16.60;74.20;;;;;;5055006;28;20025;-36
2021/07/31 06:27:28;;;;;;;8.95;2.08;;;16.50;74.30;;;;;;5054838;28;20033;-36
2021/07/31 06:29:53;;;;;;;4.00;2.15;;;16.60;74.40;;;;;;5054403;28;20350;-36
2021/07/31 06:32:19;;;;;;;10.15;2.85;;;16.50;74.30;;;;;;5054959;28;20477;-36
2021/07/31 06:34:44;;;;;;;5.00;2.60;;;16.60;74.70;;;;;;5054697;28;20029;-36
2021/07/31 06:37:10;;;;;;;5.03;2.05;;;16.70;74.50;;;;;;5054611;28;20524;-36
2021/07/31 06:39:36;;;;;;;5.15;2.90;;;16.70;74.30;;;;;;5053430;28;20029;-37
2021/07/31 06:42:01;;;;;;;4.30;2.65;;;16.80;74.00;;;;;;5054615;28;20542;-36
2021/07/31 06:44:27;;;;;;;6.70;2.55;;;16.90;73.70;;;;;;5054634;28;20021;-36
2021/07/31 06:46:53;;;;;;;3.33;2.22;;;16.80;73.50;;;;;;5054814;28;20063;-36
2021/07/31 06:49:18;;;;;;;12.63;2.90;;;16.90;73.20;;;;;;5054459;28;20100;-36
2021/07/31 06:51:44;;;;;;;9.10;2.80;;;17.00;73.00;;;;;;5053197;28;20032;-36
2021/07/31 06:54:09;;;;;;;4.60;2.47;;;17.00;72.40;;;;;;5055085;28;20060;-36
2021/07/31 06:56:36;;;;;;;9.95;2.38;;;17.10;72.40;;;;;;5054765;28;20029;-36
2021/07/31 06:59:03;;;;;;;9.65;2.78;;;17.20;71.80;;;;;;5054669;28;20032;-36
2021/07/31 07:01:28;;;;;;;5.50;3.05;;;17.00;72.70;;;;;;5054372;28;20024;-36
2021/07/31 07:03:54;;;;;;;5.53;2.80;;;17.10;72.40;;;;;;5054600;28;20048;-36
2021/07/31 07:06:20;;;;;;;5.00;2.80;;;17.10;72.60;;;;;;5053271;28;20021;-36
2021/07/31 07:08:46;;;;;;;9.65;2.83;;;17.20;72.20;;;;;;5053907;28;20036;-36
2021/07/31 07:11:13;;;;;;;9.27;3.13;;;17.30;71.70;;;;;;5054071;28;20029;-37
2021/07/31 07:13:39;;;;;;;5.50;3.13;;;17.30;72.30;;;;;;5053710;28;20025;-36
2021/07/31 07:16:05;;;;;;;10.75;4.15;;;17.20;72.20;;;;;;5052411;28;20031;-36
2021/07/31 07:18:31;;;;;;;14.02;2.92;;;17.20;72.50;;;;;;5053491;28;20518;-37
2021/07/31 07:20:56;;;;;;;5.65;3.13;;;17.40;71.70;;;;;;5052088;28;20029;-36
2021/07/31 07:23:22;;;;;;;8.82;2.50;;;17.30;72.00;;;;;;5052984;28;20025;-37
2021/07/31 07:25:48;;;;;;;6.00;2.88;;;17.50;71.30;;;;;;5053967;28;20505;-38
2021/07/31 07:28:13;;;;;;;6.93;2.60;;;17.70;71.00;;;;;;5053355;28;20033;-37
2021/07/31 07:30:39;;;;;;;6.63;2.95;;;17.50;71.20;;;;;;5052972;28;20401;-36
2021/07/31 07:33:05;;;;;;;7.85;2.50;;;17.80;70.30;;;;;;5052421;28;20025;-36
2021/07/31 07:35:31;;;;;;;6.22;2.50;;;17.70;71.30;;;;;;5052303;28;20603;-36
2021/07/31 07:37:57;;;;;;;4.25;2.55;;;17.30;71.90;;;;;;5052363;28;20125;-37
2021/07/31 07:40:23;;;;;;;6.00;2.50;;;17.30;71.20;;;;;;5051623;28;20103;-37
2021/07/31 07:42:49;;;;;;;4.72;2.08;;;17.40;71.30;;;;;;5051688;28;20307;-36
2021/07/31 07:45:15;;;;;;;6.85;2.80;;;17.50;70.80;;;;;;5052652;28;20033;-36
2021/07/31 07:47:40;;;;;;;8.30;2.58;;;17.50;71.00;;;;;;5052838;28;20028;-37
2021/07/31 07:50:07;;;;;;;4.22;2.35;;;17.70;70.40;;;;;;5053288;28;20465;-37
2021/07/31 07:52:33;;;;;;;13.70;2.72;;;17.70;69.90;;;;;;5053027;28;20025;-37
2021/07/31 07:54:58;;;;;;;3.55;2.47;;;18.00;69.00;;;;;;5051218;28;20033;-37
2021/07/31 07:57:24;;;;;;;7.30;2.33;;;18.20;68.10;;;;;;5052481;28;20123;-37
2021/07/31 07:59:49;;;;;;;5.47;2.20;;;18.40;67.60;;;;;;5050838;28;20064;-37
2021/07/31 08:02:15;;;;;;;5.00;1.83;;;18.40;67.20;;;;;;5052605;28;20035;-36
2021/07/31 08:04:44;;;;;;;2.78;2.00;;;18.30;67.50;;;;;;5052464;28;20055;-36
2021/07/31 08:07:10;;;;;;;6.13;2.33;;;18.30;67.70;;;;;;5052419;28;20427;-40
2021/07/31 08:09:37;;;;;;;4.20;2.13;;;18.50;67.10;;;;;;5052586;28;20029;-36
2021/07/31 08:12:07;;;;;;;3.95;2.10;;;18.50;66.80;;;;;;5052571;28;20056;-36
2021/07/31 08:14:34;;;;;;;4.15;2.72;;;18.20;67.90;;;;;;5052177;28;20029;-37
2021/07/31 08:16:59;;;;;;;5.35;2.17;;;17.80;67.80;;;;;;5050548;28;20025;-37
2021/07/31 08:19:25;;;;;;;11.32;2.72;;;17.80;68.50;;;;;;5052553;28;20017;-37
2021/07/31 08:21:50;;;;;;;2.90;2.03;;;17.70;69.10;;;;;;5052328;28;20021;-37
2021/07/31 08:24:16;;;;;;;5.25;2.13;;;17.70;69.10;;;;;;5052562;28;20350;-37
2021/07/31 08:26:46;;;;;;;3.75;2.47;;;17.70;68.80;;;;;;5052239;28;20155;-37
2021/07/31 08:29:12;;;;;;;3.35;2.03;;;17.70;69.40;;;;;;5052156;28;20066;-37
2021/07/31 08:31:41;;;;;;;8.65;2.30;;;17.80;68.80;;;;;;5052357;28;20051;-37
2021/07/31 08:34:10;;;;;;;4.53;2.10;;;18.00;68.60;;;;;;5052476;28;20050;-37
2021/07/31 08:36:36;;;;;;;6.50;2.20;;;18.20;68.40;;;;;;5052335;28;20115;-37
2021/07/31 08:39:02;;;;;;;7.10;2.38;;;18.40;66.60;;;;;;5052471;28;20468;-37
2021/07/31 08:41:28;;;;;;;2.72;1.58;;;18.60;65.60;;;;;;5052380;28;20330;-37
2021/07/31 08:43:57;;;;;;;7.53;3.03;;;18.80;64.90;;;;;;5052476;28;20120;-37
2021/07/31 08:46:23;;;;;;;4.30;2.35;;;18.90;64.40;;;;;;5050420;28;20098;-37
2021/07/31 08:48:50;;;;;;;5.10;1.70;;;19.20;63.60;;;;;;5051170;28;20118;-36
2021/07/31 08:51:18;;;;;;;3.67;2.08;;;18.90;64.00;;;;;;5051846;28;20017;-36
2021/07/31 08:53:44;;;;;;;3.92;2.00;;;18.50;65.00;;;;;;5051636;28;20580;-37
2021/07/31 08:56:10;;;;;;;17.60;2.20;;;18.50;64.40;;;;;;5050505;28;20032;-36
2021/07/31 08:58:40;;;;;;;4.47;2.17;;;18.60;64.50;;;;;;5051487;28;20029;-36
2021/07/31 09:01:06;;;;;;;3.80;1.90;;;18.70;63.10;;;;;;5052047;28;20032;-37
2021/07/31 09:03:46;;;;;;;4.18;2.17;;;18.80;63.40;;;;;;5052334;28;20025;-36
2021/07/31 09:06:25;;;;;;;4.45;2.17;;;18.90;62.90;;;;;;5053073;28;20025;-36
2021/07/31 09:08:54;;;;;;;5.93;2.25;;;19.10;63.00;;;;;;5052136;28;20036;-37
2021/07/31 09:11:20;;;;;;;7.50;1.70;;;19.30;62.90;;;;;;5051431;28;20120;-37
2021/07/31 09:13:46;;;;;;;3.33;2.25;;;19.40;61.80;;;;;;5051183;28;20127;-37
2021/07/31 09:16:11;;;;;;;8.30;2.03;;;19.30;62.40;;;;;;5052445;28;20025;-38
2021/07/31 09:18:43;;;;;;;4.50;1.73;;;19.00;62.90;;;;;;5050577;28;20550;-37
2021/07/31 09:21:13;;;;;;;3.38;1.80;;;19.10;62.90;;;;;;5052223;28;20369;-36
2021/07/31 09:23:48;;;;;;;4.63;1.73;;;18.80;63.60;;;;;;5052356;28;20029;-37
2021/07/31 09:26:25;;;;;;;4.97;1.60;;;18.50;63.80;;;;;;5052133;28;20040;-37
2021/07/31 09:28:59;;;;;;;10.88;3.80;;;18.50;63.90;;;;;;5053711;28;20029;-38
2021/07/31 09:31:25;;;;;;;3.20;2.70;;;18.50;64.30;;;;;;5053849;28;20139;-37
2021/07/31 09:33:52;;;;;;;4.05;1.70;;;18.60;64.20;;;;;;5055390;28;20114;-37
2021/07/31 09:36:17;;;;;;;4.93;1.98;;;18.40;64.70;;;;;;5055028;28;20060;-37
2021/07/31 09:38:48;;;;;;;5.82;1.88;;;18.30;65.00;;;;;;5055843;28;20409;-40
2021/07/31 09:41:20;;;;;;;3.17;1.90;;;18.40;64.90;;;;;;5054956;28;20031;-36
2021/07/31 09:44:16;;;;;;;4.63;1.90;;;18.40;65.30;;;;;;5055151;28;20025;-38
2021/07/31 09:46:48;;;;;;;1.45;1.33;;;18.50;65.10;;;;;;5055293;28;20040;-37
2021/07/31 09:49:15;;;;;;;3.35;2.30;;;18.40;65.10;;;;;;5055562;28;20094;-37
2021/07/31 09:51:42;;;;;;;4.13;1.80;;;18.60;64.90;;;;;;5055284;28;20029;-36
2021/07/31 09:54:10;;;;;;;2.15;1.27;;;18.60;64.50;;;;;;5055364;28;20318;-38
2021/07/31 09:56:47;;;;;;;3.03;1.77;;;18.40;64.90;;;;;;5054787;28;20069;-37
2021/07/31 09:59:16;;;;;;;5.60;2.65;;;18.50;64.60;;;;;;5055145;28;20036;-39
2021/07/31 10:01:57;;;;;;;2.58;1.90;;;18.70;63.60;;;;;;5055528;28;20477;-37
2021/07/31 10:04:23;;;;;;;3.90;2.20;;;18.80;63.50;;;;;;5054153;28;20124;-38
2021/07/31 10:06:50;;;;;;;7.85;2.50;;;19.00;63.40;;;;;;5055044;28;20051;-37
2021/07/31 10:09:16;;;;;;;6.97;2.15;;;19.40;62.30;;;;;;5055383;28;20554;-37
2021/07/31 10:11:44;;;;;;;5.38;1.80;;;20.00;60.60;;;;;;5053804;28;20061;-36
2021/07/31 10:14:11;;;;;;;4.32;2.20;;;20.00;60.50;;;;;;5055241;28;20051;-37
2021/07/31 10:16:39;;;;;;;5.07;1.73;;;19.50;60.50;;;;;;5054734;28;20373;-37
2021/07/31 10:19:09;;;;;;;12.15;2.70;;;19.50;60.60;;;;;;5054886;28;20112;-36
2021/07/31 10:21:58;;;;;;;3.38;1.80;;;19.50;60.30;;;;;;5055052;28;20021;-37
2021/07/31 10:24:24;;;;;;;7.72;1.98;;;19.30;60.70;;;;;;5054843;28;20025;-37
2021/07/31 10:27:14;;;;;;;3.88;1.58;;;19.30;60.70;;;;;;5055300;28;20029;-37
2021/07/31 10:29:41;;;;;;;4.15;2.10;;;19.20;61.30;;;;;;5054768;28;20473;-37
2021/07/31 10:32:19;;;;;;;6.28;1.50;;;19.30;61.10;;;;;;5055049;28;20024;-37
2021/07/31 10:34:47;;;;;;;3.13;2.20;;;19.80;60.50;;;;;;5054289;28;20124;-37
2021/07/31 10:37:32;;;;;;;5.32;2.10;;;19.90;60.00;;;;;;5053099;28;20033;-36
2021/07/31 10:40:07;;;;;;;10.32;2.20;;;19.90;59.50;;;;;;5054492;28;20025;-37
2021/07/31 10:42:51;;;;;;;4.72;2.17;;;20.00;59.50;;;;;;5054625;28;20572;-37
2021/07/31 10:45:23;;;;;;;11.20;2.00;;;19.90;59.80;;;;;;5054876;28;20024;-42
2021/07/31 10:47:50;;;;;;;3.22;1.95;;;19.70;60.50;;;;;;5053128;28;20036;-37
2021/07/31 10:50:24;;;;;;;3.55;1.98;;;19.60;60.60;;;;;;5054787;28;20029;-37
2021/07/31 10:53:00;;;;;;;4.18;2.30;;;19.30;62.10;;;;;;5054736;28;20029;-36
2021/07/31 10:55:49;;;;;;;2.70;1.75;;;19.30;62.10;;;;;;5054437;28;20495;-37
2021/07/31 10:58:19;;;;;;;3.17;1.83;;;19.30;62.40;;;;;;5053976;28;20043;-37
2021/07/31 11:01:18;;;;;;;5.00;1.88;;;19.30;62.40;;;;;;5053039;28;20075;-37
2021/07/31 11:03:44;;;;;;;3.78;1.90;;;19.70;61.30;;;;;;5053501;28;20351;-37
2021/07/31 11:06:11;;;;;;;2.13;1.80;;;19.50;61.60;;;;;;5054383;28;20148;-37
2021/07/31 11:08:43;;;;;;;2.65;1.70;;;19.70;60.80;;;;;;5053502;28;20025;-37
2021/07/31 11:11:14;;;;;;;6.03;2.13;;;20.20;59.50;;;;;;5053963;28;20100;-37
2021/07/31 11:13:46;;;;;;;2.53;1.90;;;20.20;59.40;;;;;;5053386;28;20529;-36
2021/07/31 11:16:15;;;;;;;6.57;2.92;;;20.00;59.60;;;;;;5053681;28;20086;-37
2021/07/31 11:18:43;;;;;;;3.17;1.57;;;19.90;59.90;;;;;;5053511;28;20032;-36
2021/07/31 11:21:12;;;;;;;2.42;2.17;;;20.10;59.50;;;;;;5053226;28;20259;-37
2021/07/31 11:23:55;;;;;;;6.30;1.70;;;20.20;59.30;;;;;;5051898;28;20029;-37
2021/07/31 11:26:38;;;;;;;2.88;1.60;;;20.20;59.70;;;;;;5053687;28;20044;-37
2021/07/31 11:29:27;;;;;;;5.43;1.95;;;20.00;59.70;;;;;;5053288;28;20385;-37
2021/07/31 11:32:04;;;;;;;5.20;1.73;;;19.80;60.30;;;;;;5052671;28;20049;-38
2021/07/31 11:34:37;;;;;;;2.55;1.58;;;20.00;60.00;;;;;;5051852;28;20036;-37
2021/07/31 11:37:06;;;;;;;2.42;1.77;;;19.80;61.00;;;;;;5053018;28;20106;-36
2021/07/31 11:39:33;;;;;;;3.17;1.67;;;20.00;59.90;;;;;;5053376;28;20020;-38
2021/07/31 11:41:59;;;;;;;2.38;1.55;;;20.50;57.80;;;;;;5052906;28;20021;-36
2021/07/31 11:44:33;;;;;;;6.45;1.83;;;20.70;57.80;;;;;;5052732;28;20021;-36
2021/07/31 11:47:00;;;;;;;4.97;1.95;;;20.60;58.50;;;;;;5051635;28;20037;-36
2021/07/31 11:49:30;;;;;;;2.90;1.85;;;20.10;58.90;;;;;;5053590;28;20091;-37
2021/07/31 11:51:58;;;;;;;3.53;1.90;;;19.80;59.40;;;;;;5053124;28;20473;-37
2021/07/31 11:54:25;;;;;;;2.38;1.70;;;19.60;59.40;;;;;;5052746;28;20098;-36
2021/07/31 11:56:52;;;;;;;1.98;1.33;;;19.60;59.80;;;;;;5052809;28;20017;-36
2021/07/31 11:59:26;;;;;;;2.00;1.70;;;19.70;59.80;;;;;;5053079;28;20415;-37
2021/07/31 12:01:53;;;;;;;1.88;1.60;;;19.60;60.00;;;;;;5051449;28;20484;-37
2021/07/31 12:04:44;;;;;;;3.33;1.85;;;19.80;59.60;;;;;;5052824;28;20074;-37
2021/07/31 12:07:14;;;;;;;4.45;1.45;;;20.30;58.20;;;;;;5051443;28;20058;-37
2021/07/31 12:09:41;;;;;;;5.03;1.33;;;20.30;57.80;;;;;;5053122;28;20091;-37
2021/07/31 12:12:27;;;;;;;2.25;1.63;;;20.30;58.50;;;;;;5052746;28;20033;-37
2021/07/31 12:15:11;;;;;;;8.25;1.40;;;20.30;57.80;;;;;;5047337;28;20036;-36
2021/07/31 12:18:02;;;;;;;2.67;2.00;;;20.80;57.10;;;;;;5052754;28;20056;-37
2021/07/31 12:20:38;;;;;;;4.43;1.88;;;21.10;56.20;;;;;;5052502;28;20104;-37
2021/07/31 12:23:06;;;;;;;3.88;1.55;;;21.30;55.90;;;;;;5052365;28;20029;-37
2021/07/31 12:25:33;;;;;;;1.88;1.58;;;21.40;55.10;;;;;;5052359;28;20029;-36
2021/07/31 12:28:35;;;;;;;5.30;2.67;;;22.20;53.50;;;;;;5052418;28;20043;-37
2021/07/31 12:31:01;;;;;;;3.05;2.03;;;23.00;52.10;;;;;;5051726;28;20040;-37
2021/07/31 12:33:26;;;;;;;3.92;1.88;;;22.30;53.30;;;;;;5051772;28;20465;-37
2021/07/31 12:35:52;;;;;;;4.07;1.45;;;22.30;53.40;;;;;;5050896;28;20472;-37
2021/07/31 12:38:23;;;;;;;4.13;1.85;;;23.00;51.20;;;;;;5051931;28;20024;-38
2021/07/31 12:40:58;;;;;;;6.95;2.55;;;23.30;51.10;;;;;;5052460;28;20031;-37
2021/07/31 12:43:25;;;;;;;1.60;1.50;;;22.80;50.60;;;;;;5052512;28;20025;-37
2021/07/31 12:45:53;;;;;;;3.47;1.70;;;21.50;53.90;;;;;;5050793;28;20021;-37
2021/07/31 12:48:19;;;;;;;5.35;2.83;;;21.20;55.50;;;;;;5052519;28;20029;-37